createdAt,value
2022-12-01T00:00:42.757Z,82.19
2022-12-01T00:05:45.019Z,82.56
2022-12-01T00:10:47.500Z,83.67
2022-12-01T00:15:49.724Z,82.95
2022-12-01T00:20:56.586Z,82.95
2022-12-01T00:26:05.900Z,82.58
2022-12-01T00:31:10.293Z,82.33
2022-12-01T00:36:12.750Z,82.61
2022-12-01T00:41:15.168Z,82.58
2022-12-01T00:46:18.097Z,82.34
2022-12-01T00:51:20.328Z,82.46
2022-12-01T00:56:22.601Z,82.17
2022-12-01T01:01:58.903Z,82.50
2022-12-01T01:07:01.447Z,81.54
2022-12-01T01:12:03.734Z,82.22
2022-12-01T01:17:06.162Z,81.48
2022-12-01T01:22:08.625Z,81.87
2022-12-01T01:27:10.884Z,81.50
2022-12-01T01:32:13.051Z,81.98
2022-12-01T01:37:15.434Z,82.29
2022-12-01T01:42:20.477Z,81.90
2022-12-01T01:47:31.346Z,82.05
2022-12-01T01:52:42.032Z,81.29
2022-12-01T01:57:45.658Z,81.49
2022-12-01T02:02:49.604Z,81.03
2022-12-01T02:07:53.939Z,81.25
2022-12-01T02:13:20.958Z,80.98
2022-12-01T02:18:45.566Z,81.48
2022-12-01T02:29:28.370Z,81.12
2022-12-01T02:34:56.555Z,80.89
2022-12-01T02:40:14.780Z,81.04
2022-12-01T02:45:38.571Z,81.13
2022-12-01T02:50:43.061Z,82.03
2022-12-01T02:55:54.364Z,81.91
2022-12-01T03:01:02.762Z,81.96
2022-12-01T03:06:44.748Z,81.62
2022-12-01T03:12:09.903Z,82.09
2022-12-01T03:17:19.807Z,81.92
2022-12-01T03:22:32.302Z,81.50
2022-12-01T03:27:38.579Z,81.74
2022-12-01T03:32:48.130Z,81.76
2022-12-01T03:38:02.988Z,82.63
2022-12-01T03:43:10.214Z,83.05
2022-12-01T03:48:12.913Z,83.11
2022-12-01T03:53:34.780Z,82.50
2022-12-01T03:58:45.737Z,83.08
2022-12-01T04:03:48.297Z,82.43
2022-12-01T04:08:50.597Z,83.03
2022-12-01T04:13:53.078Z,83.72
2022-12-01T04:18:55.366Z,83.64
2022-12-01T04:24:03.975Z,83.78
2022-12-01T04:29:08.712Z,83.04
2022-12-01T04:34:11.907Z,84.01
2022-12-01T04:39:14.171Z,84.11
2022-12-01T04:44:16.635Z,83.40
2022-12-01T04:49:19.677Z,83.03
2022-12-01T04:54:21.911Z,83.19
2022-12-01T04:59:24.378Z,82.45
2022-12-01T05:04:26.625Z,82.77
2022-12-01T05:09:28.914Z,82.87
2022-12-01T05:14:31.104Z,82.59
2022-12-01T05:19:51.899Z,82.83
2022-12-01T05:24:54.112Z,82.64
2022-12-01T05:29:56.389Z,82.47
2022-12-01T05:34:58.773Z,82.01
2022-12-01T05:40:02.191Z,83.67
2022-12-01T05:45:04.745Z,84.58
2022-12-01T05:50:09.985Z,84.64
2022-12-01T05:55:12.238Z,83.33
2022-12-01T06:00:15.864Z,84.82
2022-12-01T06:05:18.248Z,84.60
2022-12-01T06:10:21.094Z,84.48
2022-12-01T06:15:23.437Z,84.39
2022-12-01T06:20:25.986Z,83.75
2022-12-01T06:25:28.260Z,83.06
2022-12-01T06:30:30.460Z,82.89
2022-12-01T06:35:32.850Z,82.76
2022-12-01T06:40:35.125Z,83.03
2022-12-01T06:45:37.356Z,83.43
2022-12-01T06:50:39.591Z,83.60
2022-12-01T06:55:41.923Z,82.86
2022-12-01T07:00:48.987Z,82.92
2022-12-01T07:06:01.841Z,83.07
2022-12-01T07:11:15.139Z,82.90
2022-12-01T07:16:17.621Z,83.15
2022-12-01T07:21:19.949Z,82.93
2022-12-01T07:26:22.299Z,84.04
2022-12-01T07:31:24.744Z,84.61
2022-12-01T07:36:26.972Z,83.05
2022-12-01T07:41:29.234Z,83.09
2022-12-01T07:46:31.586Z,83.06
2022-12-01T07:51:34.854Z,82.40
2022-12-01T07:56:37.933Z,82.25
2022-12-01T08:01:44.318Z,82.11
2022-12-01T08:06:47.030Z,82.02
2022-12-01T08:11:49.288Z,81.58
2022-12-01T08:16:51.964Z,81.47
2022-12-01T08:21:54.330Z,81.47
2022-12-01T08:26:56.515Z,81.42
2022-12-01T08:31:59.491Z,81.35
2022-12-01T08:37:01.836Z,81.06
2022-12-01T08:42:04.334Z,81.36
2022-12-01T08:47:06.693Z,81.26
2022-12-01T08:52:08.960Z,81.22
2022-12-01T08:57:11.523Z,80.89
2022-12-01T09:02:16.542Z,80.49
2022-12-01T09:07:24.655Z,80.10
2022-12-01T09:12:30.016Z,80.06
2022-12-01T09:17:32.231Z,79.61
2022-12-01T09:22:35.109Z,79.66
2022-12-01T09:27:37.522Z,79.50
2022-12-01T09:32:39.687Z,79.68
2022-12-01T09:37:41.890Z,79.62
2022-12-01T09:42:46.513Z,79.13
2022-12-01T09:47:49.088Z,79.44
2022-12-01T09:52:53.816Z,79.06
2022-12-01T09:57:59.554Z,78.93
2022-12-01T10:03:18.151Z,78.97
2022-12-01T10:08:27.153Z,79.30
2022-12-01T10:13:29.820Z,79.56
2022-12-01T10:18:35.191Z,79.10
2022-12-01T10:23:47.018Z,79.58
2022-12-01T10:29:21.500Z,79.44
2022-12-01T10:34:29.117Z,79.64
2022-12-01T10:45:27.104Z,79.77
2022-12-01T10:55:52.652Z,79.84
2022-12-01T11:06:32.117Z,79.64
2022-12-01T11:11:41.130Z,79.31
2022-12-01T11:22:27.108Z,79.34
2022-12-01T11:27:35.913Z,79.65
2022-12-01T11:32:40.617Z,79.15
2022-12-01T11:38:27.545Z,79.21
2022-12-01T12:05:52.847Z,78.93
2022-12-01T12:11:14.288Z,78.69
2022-12-01T12:16:33.681Z,78.55
2022-12-01T12:22:05.348Z,78.44
2022-12-01T12:27:30.116Z,78.21
2022-12-01T12:32:40.988Z,78.51
2022-12-01T12:38:05.923Z,78.07
2022-12-01T12:43:19.956Z,78.20
2022-12-01T12:49:20.404Z,78.02
2022-12-01T12:54:34.376Z,78.26
2022-12-01T13:00:05.799Z,78.06
2022-12-01T13:05:19.444Z,78.21
2022-12-01T13:10:30.330Z,78.18
2022-12-01T13:15:35.950Z,78.20
2022-12-01T13:20:38.968Z,78.20
2022-12-01T13:25:43.108Z,78.45
2022-12-01T13:31:06.785Z,78.70
2022-12-01T13:41:38.923Z,78.63
2022-12-01T13:46:44.563Z,78.26
2022-12-01T13:52:19.521Z,78.32
2022-12-01T13:57:28.512Z,78.34
2022-12-01T14:02:34.423Z,78.26
2022-12-01T14:07:38.934Z,78.31
2022-12-01T14:12:46.368Z,78.39
2022-12-01T14:17:58.829Z,78.17
2022-12-01T14:23:19.497Z,78.46
2022-12-01T14:28:56.899Z,78.29
2022-12-01T14:34:03.069Z,78.55
2022-12-01T14:39:13.917Z,78.48
2022-12-01T14:44:31.870Z,78.57
2022-12-01T14:49:43.039Z,78.73
2022-12-01T14:55:09.096Z,78.86
2022-12-01T15:00:16.651Z,79.00
2022-12-01T15:05:21.695Z,78.96
2022-12-01T15:10:37.729Z,79.16
2022-12-01T15:15:53.753Z,79.21
2022-12-01T15:21:08.646Z,79.47
2022-12-01T15:26:20.193Z,79.31
2022-12-01T15:31:22.570Z,79.79
2022-12-01T15:36:24.897Z,79.21
2022-12-01T15:41:29.430Z,79.71
2022-12-01T15:46:35.075Z,79.63
2022-12-01T15:51:37.432Z,79.78
2022-12-01T15:56:41.722Z,79.95
2022-12-01T16:01:45.259Z,79.67
2022-12-01T16:07:07.748Z,79.77
2022-12-01T16:12:10.154Z,79.65
2022-12-01T16:17:12.470Z,79.83
2022-12-01T16:22:22.262Z,79.84
2022-12-01T16:27:26.064Z,79.83
2022-12-01T16:32:41.416Z,79.93
2022-12-01T16:37:43.640Z,80.28
2022-12-01T16:42:46.471Z,79.97
2022-12-01T16:47:49.703Z,79.98
2022-12-01T16:52:51.914Z,80.09
2022-12-01T16:57:55.827Z,80.66
2022-12-01T17:02:58.745Z,80.26
2022-12-01T17:08:01.154Z,80.36
2022-12-01T17:13:03.581Z,80.34
2022-12-01T17:18:05.853Z,80.20
2022-12-01T17:23:08.283Z,80.28
2022-12-01T17:28:10.561Z,80.22
2022-12-01T17:33:12.912Z,80.49
2022-12-01T17:38:15.246Z,80.04
2022-12-01T17:43:17.500Z,80.38
2022-12-01T17:48:19.923Z,80.53
2022-12-01T17:53:22.121Z,80.80
2022-12-01T17:58:24.792Z,80.26
2022-12-01T18:03:27.234Z,80.09
2022-12-01T18:08:32.014Z,80.47
2022-12-01T18:13:39.419Z,80.30
2022-12-01T18:18:42.171Z,80.12
2022-12-01T18:24:03.242Z,80.59
2022-12-01T18:29:11.841Z,80.05
2022-12-01T18:34:14.277Z,81.09
2022-12-01T18:39:17.295Z,80.67
2022-12-01T18:44:19.754Z,80.46
2022-12-01T18:49:22.181Z,80.24
2022-12-01T18:54:24.434Z,80.36
2022-12-01T18:59:27.488Z,80.70
2022-12-01T19:04:29.795Z,80.49
2022-12-01T19:09:32.101Z,80.90
2022-12-01T19:14:34.569Z,80.38
2022-12-01T19:19:37.704Z,80.47
2022-12-01T19:24:40.108Z,80.66
2022-12-01T19:29:42.490Z,80.84
2022-12-01T19:34:45.969Z,80.50
2022-12-01T19:39:48.263Z,80.57
2022-12-01T19:44:50.889Z,80.66
2022-12-01T19:49:53.423Z,80.18
2022-12-01T19:54:55.975Z,80.87
2022-12-01T19:59:58.231Z,80.79
2022-12-01T20:05:00.619Z,80.84
2022-12-01T20:10:03.033Z,80.63
2022-12-01T20:15:08.995Z,81.00
2022-12-01T20:20:12.364Z,80.89
2022-12-01T20:25:14.709Z,80.52
2022-12-01T20:30:17.175Z,80.60
2022-12-01T20:35:19.604Z,80.63
2022-12-01T20:40:22.103Z,80.99
2022-12-01T20:45:24.360Z,81.04
2022-12-01T20:50:26.597Z,80.71
2022-12-01T20:55:29.053Z,80.38
2022-12-01T21:00:32.368Z,80.25
2022-12-01T21:05:34.785Z,80.80
2022-12-01T21:10:39.162Z,80.46
2022-12-01T21:16:00.046Z,80.41
2022-12-01T21:21:08.385Z,80.66
2022-12-01T21:26:16.099Z,80.84
2022-12-01T21:31:18.395Z,80.67
2022-12-01T21:36:23.539Z,80.59
2022-12-01T21:41:30.558Z,81.37
2022-12-01T21:46:33.058Z,81.00
2022-12-01T21:51:35.325Z,80.56
2022-12-01T21:56:40.444Z,81.22
2022-12-01T22:01:42.739Z,80.82
2022-12-01T22:06:49.035Z,81.13
2022-12-01T22:11:57.885Z,80.74
2022-12-01T22:17:06.417Z,80.73
2022-12-01T22:22:11.574Z,81.47
2022-12-01T22:27:33.428Z,81.07
2022-12-01T22:32:56.245Z,81.03
2022-12-01T22:38:07.390Z,80.93
2022-12-01T22:43:18.394Z,81.00
2022-12-01T22:48:43.749Z,80.50
2022-12-01T22:53:46.643Z,80.83
2022-12-01T22:58:48.822Z,80.30
2022-12-01T23:03:53.754Z,80.38
2022-12-01T23:08:56.036Z,80.57
2022-12-01T23:13:58.373Z,80.67
2022-12-01T23:19:01.624Z,81.11
2022-12-01T23:24:05.396Z,80.57
2022-12-01T23:29:07.819Z,81.07
2022-12-01T23:34:16.075Z,81.31
2022-12-01T23:39:23.847Z,80.63
2022-12-01T23:44:31.977Z,80.75
2022-12-01T23:49:36.062Z,80.24
2022-12-01T23:54:39.085Z,80.07
2022-12-01T23:59:41.311Z,80.03
